sim
Sign-in with your pilot id or email,
or register
Callsign
Passwort

Schedule Details

Flight Number: EWG7658
Departure: Hamburg Airport (EDDH) at 10:05
Arrival: Thessaloniki International Airport (LGTS) at 12:50
Route: Eurowings Passenger Schedule. Enter filed route here before submitting Pirep.

Weather Information
Getting current METAR information for EDDH 252150Z 07007KT CAVOK 17/07 Q1008 NOSIG
Getting current METAR information for LGTS 252150Z 00000KT CAVOK 15/12 Q1020 NOSIG

Schedule Frequency

Route Map